createdAt,value
2018-11-10T00:01:49.467Z,56.90
2018-11-10T00:06:52.983Z,55.53
2018-11-10T00:11:56.541Z,59.87
2018-11-10T00:17:00.055Z,55.73
2018-11-10T00:22:03.923Z,60.20
2018-11-10T00:27:07.933Z,57.67
2018-11-10T00:32:11.551Z,60.43
2018-11-10T00:37:15.444Z,56.50
2018-11-10T00:42:19.345Z,56.47
2018-11-10T00:47:22.977Z,59.30
2018-11-10T00:52:26.764Z,66.57
2018-11-10T00:57:30.636Z,62.70
2018-11-10T01:02:34.508Z,69.83
2018-11-10T01:07:38.806Z,66.30
2018-11-10T01:12:43.028Z,77.23
2018-11-10T01:17:46.636Z,73.13
2018-11-10T01:22:50.176Z,76.90
2018-11-10T01:27:54.018Z,72.77
2018-11-10T01:32:57.795Z,74.63
2018-11-10T01:38:01.681Z,66.80
2018-11-10T01:43:05.565Z,80.20
2018-11-10T01:48:09.420Z,73.00
2018-11-10T01:53:13.304Z,79.10
2018-11-10T01:58:17.589Z,84.90
2018-11-10T02:03:21.420Z,86.93
2018-11-10T02:08:25.297Z,77.10
2018-11-10T02:13:29.204Z,83.33
2018-11-10T02:18:32.825Z,74.73
2018-11-10T02:23:36.610Z,83.57
2018-11-10T02:28:40.513Z,79.80
2018-11-10T02:33:44.375Z,76.20
2018-11-10T02:38:48.309Z,76.63
2018-11-10T02:43:51.866Z,81.27
2018-11-10T02:48:55.441Z,78.00
2018-11-10T02:53:59.220Z,81.97
2018-11-10T02:59:03.182Z,78.37
2018-11-10T03:04:07.175Z,83.03
2018-11-10T03:09:11.063Z,89.03
2018-11-10T03:14:14.667Z,87.73
2018-11-10T03:19:18.488Z,96.93
2018-11-10T03:24:22.095Z,102.40
2018-11-10T03:29:25.872Z,99.40
2018-11-10T03:34:29.725Z,92.63
2018-11-10T03:39:33.611Z,103.83
2018-11-10T03:44:37.485Z,105.17
2018-11-10T03:49:41.357Z,95.90
2018-11-10T03:54:45.222Z,95.10
2018-11-10T03:59:48.817Z,100.53
2018-11-10T04:04:52.609Z,93.17
2018-11-10T04:09:56.254Z,96.60
2018-11-10T04:15:00.056Z,90.00
2018-11-10T04:20:04.139Z,82.50
2018-11-10T04:25:09.143Z,89.37
2018-11-10T04:30:12.779Z,87.53
2018-11-10T04:35:16.290Z,96.80
2018-11-10T04:40:23.637Z,93.10
2018-11-10T04:45:27.408Z,89.57
2018-11-10T04:50:31.246Z,91.37
2018-11-10T04:55:35.143Z,83.80
2018-11-10T05:00:39.003Z,90.43
2018-11-10T05:05:42.858Z,79.27
2018-11-10T05:10:46.767Z,88.23
2018-11-10T05:15:50.373Z,89.10
2018-11-10T05:20:54.142Z,81.70
2018-11-10T05:25:58.025Z,80.70
2018-11-10T05:31:02.012Z,88.27
2018-11-10T05:36:05.843Z,101.17
2018-11-10T05:41:09.455Z,89.83
2018-11-10T05:46:13.206Z,84.17
2018-11-10T05:51:16.844Z,82.67
2018-11-10T05:56:20.591Z,84.90
2018-11-10T06:01:24.479Z,86.13
2018-11-10T06:06:28.334Z,84.17
2018-11-10T06:11:33.423Z,100.07
2018-11-10T06:16:37.262Z,87.43
2018-11-10T06:21:41.156Z,88.20
2018-11-10T06:26:44.999Z,84.90
2018-11-10T06:31:48.868Z,92.03
2018-11-10T06:36:52.727Z,77.23
2018-11-10T06:41:56.605Z,98.97
2018-11-10T06:47:00.271Z,93.40
2018-11-10T06:52:04.331Z,91.50
2018-11-10T06:57:07.942Z,85.70
2018-11-10T07:02:11.801Z,80.83
2018-11-10T07:07:16.035Z,93.23
2018-11-10T07:12:19.910Z,92.57
2018-11-10T07:17:23.882Z,88.00
2018-11-10T07:22:27.823Z,66.80
2018-11-10T07:27:31.692Z,77.03
2018-11-10T07:32:35.657Z,67.17
2018-11-10T07:37:39.589Z,65.57
2018-11-10T07:42:44.017Z,67.17
2018-11-10T07:47:47.559Z,53.60
2018-11-10T07:52:51.372Z,48.70
2018-11-10T07:57:55.238Z,52.57
2018-11-10T08:02:59.166Z,51.57
2018-11-10T08:08:03.021Z,54.20
2018-11-10T08:13:06.671Z,51.80
2018-11-10T08:18:10.209Z,46.13
2018-11-10T08:23:13.727Z,44.30
2018-11-10T08:28:17.553Z,53.07
2018-11-10T08:33:21.402Z,56.90
2018-11-10T08:38:25.078Z,60.80
2018-11-10T08:43:28.602Z,72.17
2018-11-10T08:48:32.189Z,60.23
2018-11-10T08:53:35.969Z,64.10
2018-11-10T08:58:39.788Z,59.47
2018-11-10T09:03:44.044Z,66.43
2018-11-10T09:08:47.670Z,58.33
2018-11-10T09:13:51.196Z,60.33
2018-11-10T09:18:54.975Z,64.60
2018-11-10T09:23:58.879Z,60.03
2018-11-10T09:29:03.023Z,57.30
2018-11-10T09:34:06.938Z,62.30
2018-11-10T09:39:10.547Z,59.30
2018-11-10T09:44:14.319Z,51.37
2018-11-10T09:49:17.914Z,56.67
2018-11-10T09:54:21.791Z,57.53
2018-11-10T09:59:25.443Z,53.93
2018-11-10T10:04:29.496Z,61.77
2018-11-10T10:09:33.379Z,58.27
2018-11-10T10:14:37.046Z,48.67
2018-11-10T10:19:41.332Z,51.97
2018-11-10T10:24:44.905Z,48.63
2018-11-10T10:29:48.426Z,44.93
2018-11-10T10:34:52.027Z,45.73
2018-11-10T10:39:55.714Z,44.70
2018-11-10T10:44:59.314Z,41.53
2018-11-10T10:50:02.859Z,43.00
2018-11-10T10:55:06.647Z,40.63
2018-11-10T11:00:16.959Z,42.43
2018-11-10T11:05:26.175Z,41.33
2018-11-10T11:10:29.785Z,46.67
2018-11-10T11:15:33.744Z,44.07
2018-11-10T11:20:37.159Z,41.40
2018-11-10T11:25:40.682Z,36.37
2018-11-10T11:30:44.473Z,37.30
2018-11-10T11:35:48.073Z,38.67
2018-11-10T11:40:51.844Z,44.73
2018-11-10T11:45:56.176Z,40.33
2018-11-10T11:51:00.296Z,46.43
2018-11-10T11:56:03.908Z,45.87
2018-11-10T12:01:07.908Z,38.30
2018-11-10T12:06:11.777Z,45.60
2018-11-10T12:11:15.653Z,40.40
2018-11-10T12:16:27.184Z,43.07
2018-11-10T12:21:23.119Z,45.40
2018-11-10T12:26:26.878Z,42.43
2018-11-10T12:31:30.461Z,40.97
2018-11-10T12:36:33.915Z,38.97
2018-11-10T12:41:37.495Z,57.43
2018-11-10T12:46:41.050Z,48.07
2018-11-10T12:51:46.101Z,56.10
2018-11-10T12:56:49.838Z,48.03
2018-11-10T13:01:53.607Z,50.90
2018-11-10T13:06:58.141Z,35.27
2018-11-10T13:12:01.782Z,33.63
2018-11-10T13:17:06.719Z,40.10
2018-11-10T13:22:10.330Z,41.30
2018-11-10T13:27:13.861Z,39.27
2018-11-10T13:32:17.895Z,37.73
2018-11-10T13:37:22.031Z,35.43
2018-11-10T13:42:26.210Z,35.20
2018-11-10T13:47:30.201Z,36.30
2018-11-10T13:52:34.591Z,37.37
2018-11-10T13:57:38.383Z,32.17
2018-11-10T14:02:42.246Z,37.90
2018-11-10T14:07:47.818Z,37.20
2018-11-10T14:12:52.421Z,33.77
2018-11-10T14:17:56.343Z,38.93
2018-11-10T14:23:01.883Z,34.80
2018-11-10T14:28:06.301Z,35.90
2018-11-10T14:33:10.558Z,36.93
2018-11-10T14:38:16.225Z,35.33
2018-11-10T14:43:20.469Z,35.10
2018-11-10T14:48:25.100Z,35.00
2018-11-10T14:53:30.149Z,30.60
2018-11-10T14:58:34.559Z,32.93
2018-11-10T15:03:39.023Z,33.23
2018-11-10T15:08:43.464Z,36.43
2018-11-10T15:13:48.542Z,38.17
2018-11-10T15:18:53.482Z,40.43
2018-11-10T15:23:57.905Z,40.07
2018-11-10T15:29:02.197Z,40.57
2018-11-10T15:34:07.574Z,36.00
2018-11-10T15:39:12.220Z,38.63
2018-11-10T15:44:16.169Z,36.27
2018-11-10T15:49:20.373Z,37.97
2018-11-10T15:54:24.575Z,40.83
2018-11-10T15:59:29.374Z,35.07
2018-11-10T16:04:33.041Z,39.23
2018-11-10T16:09:36.603Z,37.90
2018-11-10T16:14:40.552Z,38.63
2018-11-10T16:19:44.145Z,39.07
2018-11-10T16:24:47.696Z,42.20
2018-11-10T16:29:52.882Z,36.70
2018-11-10T16:34:56.479Z,39.97
2018-11-10T16:39:59.978Z,37.30
2018-11-10T16:45:03.666Z,39.97
2018-11-10T16:50:08.637Z,37.83
2018-11-10T16:55:12.355Z,39.10
2018-11-10T17:00:17.385Z,39.37
2018-11-10T17:05:20.914Z,40.17
2018-11-10T17:10:24.453Z,41.00
2018-11-10T17:15:27.999Z,38.67
2018-11-10T17:20:31.499Z,41.73
2018-11-10T17:25:35.010Z,43.67
2018-11-10T17:30:38.844Z,39.43
2018-11-10T17:35:42.476Z,44.43
2018-11-10T17:40:46.082Z,47.63
2018-11-10T17:45:49.694Z,48.20
2018-11-10T17:50:53.210Z,43.07
2018-11-10T17:55:56.994Z,41.90
2018-11-10T18:01:01.453Z,39.37
2018-11-10T18:06:07.614Z,41.00
2018-11-10T18:11:11.139Z,42.07
2018-11-10T18:16:15.882Z,48.70
2018-11-10T18:21:19.398Z,37.83
2018-11-10T18:26:22.905Z,39.97
2018-11-10T18:31:26.450Z,37.53
2018-11-10T18:36:30.052Z,39.97
2018-11-10T18:41:33.843Z,40.00
2018-11-10T18:46:38.010Z,34.80
2018-11-10T18:57:48.387Z,35.97
2018-11-10T19:02:52.046Z,32.20
2018-11-10T19:07:55.674Z,30.07
2018-11-10T19:12:59.329Z,30.67
2018-11-10T19:18:03.118Z,27.77
2018-11-10T19:23:06.736Z,23.80
2018-11-10T19:28:10.214Z,28.97
2018-11-10T19:33:13.770Z,23.63
2018-11-10T19:38:17.682Z,24.20
2018-11-10T19:43:21.273Z,24.07
2018-11-10T19:48:26.355Z,25.97
2018-11-10T19:53:30.098Z,22.43
2018-11-10T19:58:33.749Z,23.67
2018-11-10T20:03:38.314Z,24.50
2018-11-10T20:08:43.427Z,25.57
2018-11-10T20:13:47.604Z,24.53
2018-11-10T20:18:52.116Z,24.83
2018-11-10T20:23:55.917Z,23.13
2018-11-10T20:28:59.606Z,24.90
2018-11-10T20:34:03.142Z,24.03
2018-11-10T20:39:07.303Z,21.67
2018-11-10T20:44:11.001Z,26.77
2018-11-10T20:49:15.274Z,25.63
2018-11-10T20:54:19.148Z,23.03
2018-11-10T20:59:23.329Z,22.23
2018-11-10T21:04:26.897Z,28.00
2018-11-10T21:09:30.507Z,26.87
2018-11-10T21:14:34.022Z,21.43
2018-11-10T21:19:37.846Z,25.90
2018-11-10T21:24:41.851Z,22.27
2018-11-10T21:29:45.495Z,22.33
2018-11-10T21:34:48.912Z,26.87
2018-11-10T21:39:52.603Z,22.70
2018-11-10T21:44:56.118Z,22.33
2018-11-10T21:49:59.650Z,26.77
2018-11-10T21:55:03.196Z,27.87
2018-11-10T22:00:08.461Z,25.57
2018-11-10T22:05:12.238Z,25.17
2018-11-10T22:10:17.123Z,24.83
2018-11-10T22:15:22.438Z,30.40
2018-11-10T22:20:26.451Z,25.00
2018-11-10T22:25:30.010Z,24.40
2018-11-10T22:30:33.577Z,27.73
2018-11-10T22:35:37.089Z,29.93
2018-11-10T22:40:40.706Z,33.97
2018-11-10T22:45:44.211Z,30.80
2018-11-10T22:50:47.991Z,33.50
2018-11-10T22:55:52.243Z,35.90
2018-11-10T23:01:01.496Z,43.17
2018-11-10T23:06:05.414Z,80.33
2018-11-10T23:11:08.959Z,76.10
2018-11-10T23:16:12.763Z,38.87
2018-11-10T23:21:16.620Z,70.97
2018-11-10T23:26:20.228Z,65.80
2018-11-10T23:31:24.045Z,70.83
2018-11-10T23:36:27.899Z,65.27
2018-11-10T23:41:31.517Z,73.40
2018-11-10T23:46:35.356Z,67.93
2018-11-10T23:51:39.223Z,64.97
2018-11-10T23:56:42.831Z,66.80
